sensor_id;sensor_type;location;lat;lon;timestamp;pressure;altitude;pressure_sealevel;temperature;humidity
50250;BME280;36133;42.522;27.456;2023-05-09T00:00:36;101839.91;;;15.85;63.16
50250;BME280;36133;42.522;27.456;2023-05-09T00:03:02;101759.69;;;14.87;63.84
50250;BME280;36133;42.522;27.456;2023-05-09T00:05:30;101831.91;;;15.26;63.53
50250;BME280;36133;42.522;27.456;2023-05-09T00:07:55;101830.06;;;15.12;63.61
50250;BME280;36133;42.522;27.456;2023-05-09T00:10:21;101828.66;;;15.16;63.01
50250;BME280;36133;42.522;27.456;2023-05-09T00:12:47;101733.75;;;14.70;62.87
50250;BME280;36133;42.522;27.456;2023-05-09T00:15:14;101849.66;;;15.58;62.06
50250;BME280;36133;42.522;27.456;2023-05-09T00:17:39;101857.09;;;15.64;62.06
50250;BME280;36133;42.522;27.456;2023-05-09T00:20:08;101823.19;;;15.67;61.30
50250;BME280;36133;42.522;27.456;2023-05-09T00:22:37;101836.28;;;15.42;61.50
50250;BME280;36133;42.522;27.456;2023-05-09T00:25:02;101860.06;;;16.12;60.80
50250;BME280;36133;42.522;27.456;2023-05-09T00:27:28;101758.28;;;14.91;61.77
50250;BME280;36133;42.522;27.456;2023-05-09T00:29:55;101761.97;;;14.69;62.27
50250;BME280;36133;42.522;27.456;2023-05-09T00:32:20;101866.69;;;16.03;60.34
50250;BME280;36133;42.522;27.456;2023-05-09T00:34:46;101732.78;;;14.92;61.57
50250;BME280;36133;42.522;27.456;2023-05-09T00:37:12;101775.19;;;15.08;61.74
50250;BME280;36133;42.522;27.456;2023-05-09T00:39:37;101860.72;;;15.57;61.66
50250;BME280;36133;42.522;27.456;2023-05-09T00:42:03;101872.16;;;15.31;62.56
50250;BME280;36133;42.522;27.456;2023-05-09T00:44:29;101822.56;;;14.99;63.01
50250;BME280;36133;42.522;27.456;2023-05-09T00:46:54;101763.78;;;15.34;61.51
50250;BME280;36133;42.522;27.456;2023-05-09T00:49:19;101695.06;;;14.53;62.12
50250;BME280;36133;42.522;27.456;2023-05-09T00:51:46;101779.25;;;14.98;62.73
50250;BME280;36133;42.522;27.456;2023-05-09T00:54:12;101780.72;;;15.15;61.79
50250;BME280;36133;42.522;27.456;2023-05-09T00:56:38;101710.44;;;14.31;61.91
50250;BME280;36133;42.522;27.456;2023-05-09T00:59:04;101781.09;;;14.61;62.69
50250;BME280;36133;42.522;27.456;2023-05-09T01:01:31;101864.19;;;15.29;61.90
50250;BME280;36133;42.522;27.456;2023-05-09T01:03:57;101866.47;;;15.47;61.59
50250;BME280;36133;42.522;27.456;2023-05-09T01:09:16;101838.16;;;15.41;60.80
50250;BME280;36133;42.522;27.456;2023-05-09T01:12:47;101842.25;;;15.67;60.31
50250;BME280;36133;42.522;27.456;2023-05-09T01:15:07;101833.69;;;16.19;58.87
50250;BME280;36133;42.522;27.456;2023-05-09T01:17:52;101866.47;;;15.62;60.96
50250;BME280;36133;42.522;27.456;2023-05-09T01:20:32;101861.34;;;15.73;61.52
50250;BME280;36133;42.522;27.456;2023-05-09T01:31:40;101859.81;;;15.64;61.27
50250;BME280;36133;42.522;27.456;2023-05-09T01:34:07;101882.28;;;16.37;59.84
50250;BME280;36133;42.522;27.456;2023-05-09T01:36:36;101821.56;;;15.36;61.13
50250;BME280;36133;42.522;27.456;2023-05-09T01:39:03;101852.69;;;16.34;59.41
50250;BME280;36133;42.522;27.456;2023-05-09T01:41:33;101886.28;;;15.56;62.05
50250;BME280;36133;42.522;27.456;2023-05-09T01:44:04;101877.38;;;15.83;61.26
50250;BME280;36133;42.522;27.456;2023-05-09T01:46:31;101652.91;;;14.43;61.22
50250;BME280;36133;42.522;27.456;2023-05-09T01:48:58;101806.16;;;15.43;61.50
50250;BME280;36133;42.522;27.456;2023-05-09T01:51:26;101816.91;;;15.30;61.87
50250;BME280;36133;42.522;27.456;2023-05-09T01:53:54;101855.56;;;15.11;62.06
50250;BME280;36133;42.522;27.456;2023-05-09T01:56:22;101875.84;;;14.93;63.02
50250;BME280;36133;42.522;27.456;2023-05-09T01:58:49;101766.59;;;15.05;61.55
50250;BME280;36133;42.522;27.456;2023-05-09T02:01:17;101820.59;;;15.08;61.27
50250;BME280;36133;42.522;27.456;2023-05-09T02:03:44;101780.78;;;15.21;60.37
50250;BME280;36133;42.522;27.456;2023-05-09T02:06:11;101826.47;;;15.62;59.88
50250;BME280;36133;42.522;27.456;2023-05-09T02:08:38;101734.22;;;15.10;59.85
50250;BME280;36133;42.522;27.456;2023-05-09T02:11:04;101801.66;;;15.93;58.63
50250;BME280;36133;42.522;27.456;2023-05-09T02:13:29;101794.25;;;15.08;60.14
50250;BME280;36133;42.522;27.456;2023-05-09T02:15:56;101865.75;;;15.74;60.13
50250;BME280;36133;42.522;27.456;2023-05-09T02:18:21;101630.31;;;14.57;59.43
50250;BME280;36133;42.522;27.456;2023-05-09T02:20:47;101765.66;;;15.34;59.98
50250;BME280;36133;42.522;27.456;2023-05-09T02:23:13;101847.47;;;15.32;61.41
50250;BME280;36133;42.522;27.456;2023-05-09T02:25:39;101760.50;;;15.24;60.28
50250;BME280;36133;42.522;27.456;2023-05-09T02:28:06;101855.69;;;15.03;61.46
50250;BME280;36133;42.522;27.456;2023-05-09T02:30:37;101871.69;;;15.78;60.29
50250;BME280;36133;42.522;27.456;2023-05-09T02:33:09;101875.25;;;15.78;59.80
50250;BME280;36133;42.522;27.456;2023-05-09T02:35:36;101830.16;;;15.18;59.67
50250;BME280;36133;42.522;27.456;2023-05-09T02:38:02;101775.13;;;15.02;59.46
50250;BME280;36133;42.522;27.456;2023-05-09T02:40:29;101884.63;;;16.19;57.77
50250;BME280;36133;42.522;27.456;2023-05-09T02:42:55;101784.69;;;15.34;58.01
50250;BME280;36133;42.522;27.456;2023-05-09T02:45:21;101627.84;;;14.62;57.75
50250;BME280;36133;42.522;27.456;2023-05-09T02:47:46;101878.63;;;16.02;57.56
50250;BME280;36133;42.522;27.456;2023-05-09T02:50:12;101573.38;;;14.34;57.07
50250;BME280;36133;42.522;27.456;2023-05-09T02:52:37;101830.03;;;15.84;57.60
50250;BME280;36133;42.522;27.456;2023-05-09T02:55:03;101634.75;;;13.99;58.77
50250;BME280;36133;42.522;27.456;2023-05-09T02:57:31;101779.22;;;15.12;58.77
50250;BME280;36133;42.522;27.456;2023-05-09T02:59:57;101884.06;;;15.80;58.41
50250;BME280;36133;42.522;27.456;2023-05-09T03:02:25;101881.13;;;15.82;58.59
50250;BME280;36133;42.522;27.456;2023-05-09T03:04:51;101900.06;;;15.69;59.12
50250;BME280;36133;42.522;27.456;2023-05-09T03:07:16;101719.97;;;15.08;58.60
50250;BME280;36133;42.522;27.456;2023-05-09T03:09:42;101863.75;;;15.83;58.31
50250;BME280;36133;42.522;27.456;2023-05-09T03:12:08;101901.38;;;16.16;57.84
50250;BME280;36133;42.522;27.456;2023-05-09T03:14:33;101897.09;;;16.06;58.56
50250;BME280;36133;42.522;27.456;2023-05-09T03:16:59;101891.50;;;16.64;56.84
50250;BME280;36133;42.522;27.456;2023-05-09T03:19:25;101899.03;;;16.62;57.29
50250;BME280;36133;42.522;27.456;2023-05-09T03:21:50;101812.50;;;16.15;56.48
50250;BME280;36133;42.522;27.456;2023-05-09T03:24:16;101909.16;;;16.40;57.28
50250;BME280;36133;42.522;27.456;2023-05-09T03:26:41;101856.50;;;15.69;58.08
50250;BME280;36133;42.522;27.456;2023-05-09T03:29:07;101897.16;;;15.56;59.17
50250;BME280;36133;42.522;27.456;2023-05-09T03:31:33;101872.47;;;15.57;59.16
50250;BME280;36133;42.522;27.456;2023-05-09T03:34:00;101910.84;;;16.20;57.81
50250;BME280;36133;42.522;27.456;2023-05-09T03:36:25;101926.97;;;16.42;56.97
50250;BME280;36133;42.522;27.456;2023-05-09T03:38:51;101936.72;;;16.52;56.75
50250;BME280;36133;42.522;27.456;2023-05-09T03:41:17;101912.91;;;16.39;56.57
50250;BME280;36133;42.522;27.456;2023-05-09T03:43:43;101943.41;;;16.49;56.70
50250;BME280;36133;42.522;27.456;2023-05-09T03:46:09;101944.63;;;16.47;57.53
50250;BME280;36133;42.522;27.456;2023-05-09T03:48:34;101940.59;;;16.42;56.85
50250;BME280;36133;42.522;27.456;2023-05-09T03:51:00;101803.28;;;14.64;58.59
50250;BME280;36133;42.522;27.456;2023-05-09T03:53:27;101887.59;;;15.60;57.95
50250;BME280;36133;42.522;27.456;2023-05-09T03:55:52;101952.63;;;16.05;57.34
50250;BME280;36133;42.522;27.456;2023-05-09T03:58:18;101948.03;;;15.70;58.27
50250;BME280;36133;42.522;27.456;2023-05-09T04:00:44;101952.34;;;16.22;57.03
50250;BME280;36133;42.522;27.456;2023-05-09T04:03:10;101960.72;;;16.63;56.05
50250;BME280;36133;42.522;27.456;2023-05-09T04:05:35;101961.56;;;16.63;55.94
50250;BME280;36133;42.522;27.456;2023-05-09T04:08:02;101928.81;;;16.14;56.82
50250;BME280;36133;42.522;27.456;2023-05-09T04:10:29;101923.63;;;16.40;55.70
50250;BME280;36133;42.522;27.456;2023-05-09T04:12:54;101922.25;;;16.30;55.61
50250;BME280;36133;42.522;27.456;2023-05-09T04:15:20;101881.31;;;16.23;55.29
50250;BME280;36133;42.522;27.456;2023-05-09T04:17:46;101897.69;;;16.02;56.10
50250;BME280;36133;42.522;27.456;2023-05-09T04:20:12;101925.09;;;16.22;56.36
50250;BME280;36133;42.522;27.456;2023-05-09T04:22:37;101688.25;;;15.15;54.34
50250;BME280;36133;42.522;27.456;2023-05-09T04:25:03;101883.00;;;16.74;54.23
50250;BME280;36133;42.522;27.456;2023-05-09T04:27:29;101895.63;;;17.16;53.37
50250;BME280;36133;42.522;27.456;2023-05-09T04:29:54;101914.78;;;16.66;54.04
50250;BME280;36133;42.522;27.456;2023-05-09T04:32:20;101765.38;;;15.50;55.19
50250;BME280;36133;42.522;27.456;2023-05-09T04:34:48;101868.16;;;16.05;54.93
50250;BME280;36133;42.522;27.456;2023-05-09T04:37:13;101987.41;;;16.67;55.20
50250;BME280;36133;42.522;27.456;2023-05-09T04:39:39;101968.06;;;16.41;55.36
50250;BME280;36133;42.522;27.456;2023-05-09T04:42:05;101685.06;;;14.75;55.52
50250;BME280;36133;42.522;27.456;2023-05-09T04:44:30;101978.66;;;16.51;55.20
50250;BME280;36133;42.522;27.456;2023-05-09T04:46:56;101739.94;;;15.15;55.15
50250;BME280;36133;42.522;27.456;2023-05-09T04:49:22;101769.13;;;15.64;54.32
50250;BME280;36133;42.522;27.456;2023-05-09T04:51:48;101911.00;;;15.39;56.99
50250;BME280;36133;42.522;27.456;2023-05-09T04:54:14;101977.63;;;16.73;55.59
50250;BME280;36133;42.522;27.456;2023-05-09T04:56:39;101967.94;;;16.49;55.54
50250;BME280;36133;42.522;27.456;2023-05-09T04:59:05;101986.00;;;17.69;53.16
50250;BME280;36133;42.522;27.456;2023-05-09T05:01:30;101870.84;;;15.77;55.28
50250;BME280;36133;42.522;27.456;2023-05-09T05:03:56;101732.47;;;15.88;53.40
50250;BME280;36133;42.522;27.456;2023-05-09T05:06:21;101972.63;;;16.83;54.20
50250;BME280;36133;42.522;27.456;2023-05-09T05:08:47;101917.59;;;17.01;52.49
50250;BME280;36133;42.522;27.456;2023-05-09T05:11:12;101982.88;;;17.37;53.58
50250;BME280;36133;42.522;27.456;2023-05-09T05:13:38;101823.50;;;16.90;52.54
50250;BME280;36133;42.522;27.456;2023-05-09T05:16:04;101976.88;;;18.16;51.56
50250;BME280;36133;42.522;27.456;2023-05-09T05:18:29;101923.94;;;18.70;49.47
50250;BME280;36133;42.522;27.456;2023-05-09T05:20:55;101959.19;;;17.99;50.88
50250;BME280;36133;42.522;27.456;2023-05-09T05:23:20;101919.94;;;18.33;49.58
50250;BME280;36133;42.522;27.456;2023-05-09T05:25:47;101983.84;;;18.38;49.85
50250;BME280;36133;42.522;27.456;2023-05-09T05:28:12;101881.44;;;18.48;49.02
50250;BME280;36133;42.522;27.456;2023-05-09T05:30:39;101988.03;;;19.40;48.24
50250;BME280;36133;42.522;27.456;2023-05-09T05:33:05;101966.06;;;19.60;47.16
50250;BME280;36133;42.522;27.456;2023-05-09T05:35:30;101924.97;;;18.76;47.93
50250;BME280;36133;42.522;27.456;2023-05-09T05:37:56;101933.13;;;19.09;47.29
50250;BME280;36133;42.522;27.456;2023-05-09T05:40:22;101990.50;;;19.61;46.74
50250;BME280;36133;42.522;27.456;2023-05-09T05:42:47;101906.41;;;19.62;45.67
50250;BME280;36133;42.522;27.456;2023-05-09T05:45:13;101778.00;;;19.02;45.30
50250;BME280;36133;42.522;27.456;2023-05-09T05:47:39;102006.75;;;19.43;46.98
50250;BME280;36133;42.522;27.456;2023-05-09T05:50:05;101777.25;;;18.62;46.01
50250;BME280;36133;42.522;27.456;2023-05-09T05:52:32;101997.47;;;20.97;44.03
50250;BME280;36133;42.522;27.456;2023-05-09T05:54:58;102002.09;;;19.64;46.70
50250;BME280;36133;42.522;27.456;2023-05-09T05:57:23;102001.91;;;20.35;45.38
50250;BME280;36133;42.522;27.456;2023-05-09T05:59:49;101971.19;;;20.26;45.18
50250;BME280;36133;42.522;27.456;2023-05-09T06:02:16;102013.69;;;19.46;46.92
50250;BME280;36133;42.522;27.456;2023-05-09T06:04:42;101997.75;;;18.30;49.18
50250;BME280;36133;42.522;27.456;2023-05-09T06:07:11;102019.44;;;19.24;48.10
50250;BME280;36133;42.522;27.456;2023-05-09T06:09:39;101918.66;;;18.35;48.35
50250;BME280;36133;42.522;27.456;2023-05-09T06:12:05;101995.16;;;18.15;50.26
50250;BME280;36133;42.522;27.456;2023-05-09T06:14:31;102013.72;;;18.33;50.13
50250;BME280;36133;42.522;27.456;2023-05-09T06:16:57;101981.34;;;18.43;49.80
50250;BME280;36133;42.522;27.456;2023-05-09T06:19:23;102029.78;;;18.96;49.06
50250;BME280;36133;42.522;27.456;2023-05-09T06:21:48;102030.63;;;19.10;48.67
50250;BME280;36133;42.522;27.456;2023-05-09T06:24:14;102038.34;;;19.59;47.50
50250;BME280;36133;42.522;27.456;2023-05-09T06:26:43;101802.53;;;17.58;48.88
50250;BME280;36133;42.522;27.456;2023-05-09T06:29:08;101729.81;;;17.24;49.05
50250;BME280;36133;42.522;27.456;2023-05-09T06:31:35;102006.63;;;18.85;49.20
50250;BME280;36133;42.522;27.456;2023-05-09T06:34:03;101990.81;;;18.61;49.48
50250;BME280;36133;42.522;27.456;2023-05-09T06:36:29;101876.81;;;18.68;47.60
50250;BME280;36133;42.522;27.456;2023-05-09T06:38:54;102009.06;;;19.46;47.74
50250;BME280;36133;42.522;27.456;2023-05-09T06:41:20;101971.25;;;18.57;49.06
50250;BME280;36133;42.522;27.456;2023-05-09T06:43:46;101793.75;;;18.03;47.39
50250;BME280;36133;42.522;27.456;2023-05-09T06:46:11;101572.63;;;16.42;47.88
50250;BME280;36133;42.522;27.456;2023-05-09T06:48:39;101923.44;;;19.13;47.08
50250;BME280;36133;42.522;27.456;2023-05-09T06:51:05;102021.16;;;18.92;48.35
50250;BME280;36133;42.522;27.456;2023-05-09T06:53:35;101802.34;;;18.46;46.28
50250;BME280;36133;42.522;27.456;2023-05-09T06:56:00;101496.41;;;15.88;47.40
50250;BME280;36133;42.522;27.456;2023-05-09T06:58:27;102023.59;;;20.11;46.28
50250;BME280;36133;42.522;27.456;2023-05-09T07:00:52;101807.44;;;19.52;44.64
50250;BME280;36133;42.522;27.456;2023-05-09T07:03:20;101982.50;;;20.05;45.36
50250;BME280;36133;42.522;27.456;2023-05-09T07:05:45;101976.72;;;20.19;44.86
50250;BME280;36133;42.522;27.456;2023-05-09T07:08:11;101818.78;;;20.62;42.27
50250;BME280;36133;42.522;27.456;2023-05-09T07:10:37;101803.97;;;21.89;39.86
50250;BME280;36133;42.522;27.456;2023-05-09T07:13:05;101944.09;;;21.96;40.46
50250;BME280;36133;42.522;27.456;2023-05-09T07:15:31;101999.38;;;21.58;40.92
50250;BME280;36133;42.522;27.456;2023-05-09T07:17:56;101844.47;;;21.04;40.83
50250;BME280;36133;42.522;27.456;2023-05-09T07:20:42;101585.78;;;19.75;40.40
50250;BME280;36133;42.522;27.456;2023-05-09T07:23:20;101766.72;;;20.12;40.66
50250;BME280;36133;42.522;27.456;2023-05-09T07:26:03;101711.13;;;19.55;42.01
50250;BME280;36133;42.522;27.456;2023-05-09T07:28:31;101796.84;;;20.37;40.99
50250;BME280;36133;42.522;27.456;2023-05-09T07:31:05;102007.31;;;21.48;41.02
50250;BME280;36133;42.522;27.456;2023-05-09T07:33:37;101686.09;;;20.38;39.52
50250;BME280;36133;42.522;27.456;2023-05-09T07:36:11;101642.03;;;19.78;41.13
50250;BME280;36133;42.522;27.456;2023-05-09T07:38:48;101569.94;;;18.39;41.86
50250;BME280;36133;42.522;27.456;2023-05-09T07:41:18;101509.09;;;17.54;42.97
50250;BME280;36133;42.522;27.456;2023-05-09T07:43:44;102034.53;;;20.81;42.72
50250;BME280;36133;42.522;27.456;2023-05-09T07:46:10;101794.44;;;19.41;42.55
50250;BME280;36133;42.522;27.456;2023-05-09T07:48:38;101506.84;;;17.18;43.33
50250;BME280;36133;42.522;27.456;2023-05-09T07:54:05;101518.97;;;17.62;42.92
50250;BME280;36133;42.522;27.456;2023-05-09T07:56:31;101853.00;;;19.78;43.27
50250;BME280;36133;42.522;27.456;2023-05-09T07:59:00;101834.91;;;20.02;41.69
50250;BME280;36133;42.522;27.456;2023-05-09T08:01:36;101613.50;;;18.34;42.67
50250;BME280;36133;42.522;27.456;2023-05-09T08:04:02;102018.56;;;20.71;43.16
50250;BME280;36133;42.522;27.456;2023-05-09T08:06:39;101499.13;;;17.93;42.71
50250;BME280;36133;42.522;27.456;2023-05-09T08:09:32;101719.38;;;19.48;42.80
50250;BME280;36133;42.522;27.456;2023-05-09T08:11:58;101606.66;;;19.51;41.12
50250;BME280;36133;42.522;27.456;2023-05-09T08:14:26;102024.31;;;22.41;39.76
50250;BME280;36133;42.522;27.456;2023-05-09T08:16:51;101864.31;;;18.98;44.37
50250;BME280;36133;42.522;27.456;2023-05-09T08:19:17;101875.16;;;19.25;44.61
50250;BME280;36133;42.522;27.456;2023-05-09T08:21:45;101622.28;;;18.50;43.99
50250;BME280;36133;42.522;27.456;2023-05-09T08:24:11;101834.63;;;19.47;44.19
50250;BME280;36133;42.522;27.456;2023-05-09T08:26:36;101623.56;;;18.40;43.44
50250;BME280;36133;42.522;27.456;2023-05-09T08:29:02;101743.56;;;19.20;43.84
50250;BME280;36133;42.522;27.456;2023-05-09T08:31:28;101508.03;;;17.62;43.91
50250;BME280;36133;42.522;27.456;2023-05-09T08:33:53;101655.69;;;17.80;45.43
50250;BME280;36133;42.522;27.456;2023-05-09T08:36:19;101702.97;;;18.01;45.86
50250;BME280;36133;42.522;27.456;2023-05-09T08:38:45;101613.88;;;17.80;44.99
50250;BME280;36133;42.522;27.456;2023-05-09T08:41:11;101974.19;;;18.49;49.59
50250;BME280;36133;42.522;27.456;2023-05-09T08:43:37;101916.75;;;18.09;50.52
50250;BME280;36133;42.522;27.456;2023-05-09T08:46:10;101425.59;;;15.06;50.98
50250;BME280;36133;42.522;27.456;2023-05-09T08:48:42;101484.19;;;15.08;52.13
50250;BME280;36133;42.522;27.456;2023-05-09T08:51:09;101795.44;;;17.77;50.99
50250;BME280;36133;42.522;27.456;2023-05-09T08:53:36;101476.31;;;15.54;51.50
50250;BME280;36133;42.522;27.456;2023-05-09T08:56:02;101810.69;;;16.56;53.08
50250;BME280;36133;42.522;27.456;2023-05-09T08:58:32;101969.13;;;18.26;51.60
50250;BME280;36133;42.522;27.456;2023-05-09T09:00:59;101811.31;;;17.41;51.31
50250;BME280;36133;42.522;27.456;2023-05-09T09:03:29;102015.69;;;17.92;52.75
50250;BME280;36133;42.522;27.456;2023-05-09T09:06:00;101667.22;;;16.07;52.64
50250;BME280;36133;42.522;27.456;2023-05-09T09:08:59;102034.81;;;19.12;49.51
50250;BME280;36133;42.522;27.456;2023-05-09T09:11:26;102019.78;;;18.22;51.27
50250;BME280;36133;42.522;27.456;2023-05-09T09:13:57;101792.94;;;17.69;49.92
50250;BME280;36133;42.522;27.456;2023-05-09T09:16:46;101484.16;;;15.71;50.41
50250;BME280;36133;42.522;27.456;2023-05-09T09:19:15;101782.94;;;17.28;51.62
50250;BME280;36133;42.522;27.456;2023-05-09T09:21:43;101803.97;;;17.48;51.79
50250;BME280;36133;42.522;27.456;2023-05-09T09:24:13;101981.56;;;18.42;52.55
50250;BME280;36133;42.522;27.456;2023-05-09T09:26:45;101766.06;;;17.05;53.09
50250;BME280;36133;42.522;27.456;2023-05-09T09:29:12;101552.91;;;14.95;54.95
50250;BME280;36133;42.522;27.456;2023-05-09T09:31:38;101621.66;;;15.11;55.37
50250;BME280;36133;42.522;27.456;2023-05-09T09:34:05;101988.03;;;17.60;54.38
50250;BME280;36133;42.522;27.456;2023-05-09T09:36:31;101439.91;;;13.65;55.96
50250;BME280;36133;42.522;27.456;2023-05-09T09:38:58;101648.44;;;15.14;55.84
50250;BME280;36133;42.522;27.456;2023-05-09T09:41:37;102025.25;;;17.05;56.71
50250;BME280;36133;42.522;27.456;2023-05-09T09:44:17;101829.00;;;16.62;54.72
50250;BME280;36133;42.522;27.456;2023-05-09T09:46:50;101530.50;;;14.93;53.92
50250;BME280;36133;42.522;27.456;2023-05-09T09:49:18;101613.66;;;15.59;51.99
50250;BME280;36133;42.522;27.456;2023-05-09T09:51:48;102005.53;;;18.33;51.78
50250;BME280;36133;42.522;27.456;2023-05-09T09:54:15;101643.09;;;16.39;50.96
50250;BME280;36133;42.522;27.456;2023-05-09T09:59:09;101508.63;;;15.36;51.34
50250;BME280;36133;42.522;27.456;2023-05-09T10:01:53;101816.50;;;17.22;51.81
50250;BME280;36133;42.522;27.456;2023-05-09T10:04:18;101928.69;;;17.89;51.81
50250;BME280;36133;42.522;27.456;2023-05-09T10:06:55;101939.91;;;18.20;51.89
50250;BME280;36133;42.522;27.456;2023-05-09T10:09:22;101934.09;;;19.34;49.03
50250;BME280;36133;42.522;27.456;2023-05-09T10:11:49;101612.88;;;17.35;48.69
50250;BME280;36133;42.522;27.456;2023-05-09T10:14:21;101477.38;;;16.01;49.07
50250;BME280;36133;42.522;27.456;2023-05-09T10:16:54;101834.44;;;18.97;47.02
50250;BME280;36133;42.522;27.456;2023-05-09T10:19:24;101835.13;;;18.79;47.60
50250;BME280;36133;42.522;27.456;2023-05-09T10:22:02;101784.94;;;19.43;45.97
50250;BME280;36133;42.522;27.456;2023-05-09T10:27:02;101838.72;;;18.47;48.80
50250;BME280;36133;42.522;27.456;2023-05-09T10:32:36;102030.53;;;19.49;48.57
50250;BME280;36133;42.522;27.456;2023-05-09T10:35:07;101817.22;;;17.64;49.29
50250;BME280;36133;42.522;27.456;2023-05-09T10:37:36;101936.97;;;18.41;48.69
50250;BME280;36133;42.522;27.456;2023-05-09T10:40:03;101948.53;;;18.37;48.47
50250;BME280;36133;42.522;27.456;2023-05-09T10:42:30;102016.56;;;17.99;50.33
50250;BME280;36133;42.522;27.456;2023-05-09T10:44:56;101803.50;;;16.77;50.64
50250;BME280;36133;42.522;27.456;2023-05-09T10:47:24;101731.78;;;16.83;49.69
50250;BME280;36133;42.522;27.456;2023-05-09T10:49:52;101805.94;;;16.99;50.96
50250;BME280;36133;42.522;27.456;2023-05-09T10:52:21;101846.28;;;17.72;49.82
50250;BME280;36133;42.522;27.456;2023-05-09T10:55:01;101803.00;;;16.66;52.24
50250;BME280;36133;42.522;27.456;2023-05-09T10:57:30;101838.47;;;17.01;52.01
50250;BME280;36133;42.522;27.456;2023-05-09T11:00:00;101477.75;;;15.16;50.90
50250;BME280;36133;42.522;27.456;2023-05-09T11:02:26;101993.28;;;17.68;52.20
50250;BME280;36133;42.522;27.456;2023-05-09T11:05:16;101484.16;;;15.36;50.38
50250;BME280;36133;42.522;27.456;2023-05-09T11:07:42;102007.44;;;18.46;50.60
50250;BME280;36133;42.522;27.456;2023-05-09T11:10:13;101457.78;;;15.37;49.80
50250;BME280;36133;42.522;27.456;2023-05-09T11:12:56;101962.16;;;18.10;51.21
50250;BME280;36133;42.522;27.456;2023-05-09T11:15:22;101571.88;;;15.66;50.77
50250;BME280;36133;42.522;27.456;2023-05-09T11:18:05;101827.53;;;17.62;50.06
50250;BME280;36133;42.522;27.456;2023-05-09T11:20:42;101966.66;;;18.71;48.69
50250;BME280;36133;42.522;27.456;2023-05-09T11:23:10;101914.22;;;18.61;48.50
50250;BME280;36133;42.522;27.456;2023-05-09T11:25:38;102024.03;;;19.37;48.27
50250;BME280;36133;42.522;27.456;2023-05-09T11:28:04;101990.41;;;19.17;48.59
50250;BME280;36133;42.522;27.456;2023-05-09T11:30:41;101993.91;;;19.57;47.79
50250;BME280;36133;42.522;27.456;2023-05-09T11:33:21;102030.75;;;19.61;47.78
50250;BME280;36133;42.522;27.456;2023-05-09T11:36:29;101937.16;;;18.99;48.12
50250;BME280;36133;42.522;27.456;2023-05-09T11:39:09;102020.63;;;19.68;48.22
50250;BME280;36133;42.522;27.456;2023-05-09T11:41:39;102021.69;;;19.47;47.87
50250;BME280;36133;42.522;27.456;2023-05-09T11:44:13;101975.91;;;18.83;48.05
50250;BME280;36133;42.522;27.456;2023-05-09T11:46:39;101980.97;;;18.93;48.09
50250;BME280;36133;42.522;27.456;2023-05-09T11:49:08;101984.09;;;19.16;47.82
50250;BME280;36133;42.522;27.456;2023-05-09T11:51:37;101802.16;;;18.21;47.38
50250;BME280;36133;42.522;27.456;2023-05-09T11:54:04;101769.78;;;17.58;48.09
50250;BME280;36133;42.522;27.456;2023-05-09T11:56:39;102021.78;;;18.88;49.90
50250;BME280;36133;42.522;27.456;2023-05-09T11:59:06;102013.91;;;19.44;48.22
50250;BME280;36133;42.522;27.456;2023-05-09T12:01:32;102013.06;;;19.64;48.44
50250;BME280;36133;42.522;27.456;2023-05-09T12:03:58;101454.16;;;16.32;48.04
50250;BME280;36133;42.522;27.456;2023-05-09T12:06:24;101780.00;;;17.43;49.71
50250;BME280;36133;42.522;27.456;2023-05-09T12:08:57;102005.09;;;19.36;48.83
50250;BME280;36133;42.522;27.456;2023-05-09T12:11:28;101829.69;;;18.26;48.57
50250;BME280;36133;42.522;27.456;2023-05-09T12:13:56;101803.22;;;18.07;48.57
50250;BME280;36133;42.522;27.456;2023-05-09T12:16:22;101591.25;;;17.13;47.33
50250;BME280;36133;42.522;27.456;2023-05-09T12:18:48;101530.19;;;16.88;47.26
50250;BME280;36133;42.522;27.456;2023-05-09T12:21:18;101732.59;;;17.57;48.73
50250;BME280;36133;42.522;27.456;2023-05-09T12:23:45;101472.22;;;16.59;47.80
50250;BME280;36133;42.522;27.456;2023-05-09T12:26:12;101739.56;;;17.93;47.78
50250;BME280;36133;42.522;27.456;2023-05-09T12:28:41;101473.25;;;16.32;47.48
50250;BME280;36133;42.522;27.456;2023-05-09T12:31:08;101894.00;;;18.95;48.54
50250;BME280;36133;42.522;27.456;2023-05-09T12:33:37;101820.22;;;18.29;48.22
50250;BME280;36133;42.522;27.456;2023-05-09T12:36:11;101762.31;;;17.19;50.03
50250;BME280;36133;42.522;27.456;2023-05-09T12:38:55;101998.03;;;19.73;48.55
50250;BME280;36133;42.522;27.456;2023-05-09T12:41:21;101970.56;;;19.86;47.55
50250;BME280;36133;42.522;27.456;2023-05-09T12:43:49;101435.69;;;17.26;45.95
50250;BME280;36133;42.522;27.456;2023-05-09T12:46:19;101551.56;;;17.24;47.23
50250;BME280;36133;42.522;27.456;2023-05-09T12:48:48;101931.28;;;19.99;46.47
50250;BME280;36133;42.522;27.456;2023-05-09T12:51:21;101759.91;;;18.17;48.17
50250;BME280;36133;42.522;27.456;2023-05-09T12:53:47;101977.16;;;20.16;46.93
50250;BME280;36133;42.522;27.456;2023-05-09T12:56:14;101829.03;;;19.28;47.04
50250;BME280;36133;42.522;27.456;2023-05-09T12:58:47;101711.72;;;18.42;46.68
50250;BME280;36133;42.522;27.456;2023-05-09T13:01:15;101820.91;;;19.85;45.53
50250;BME280;36133;42.522;27.456;2023-05-09T13:03:41;101974.22;;;20.74;45.29
50250;BME280;36133;42.522;27.456;2023-05-09T13:06:12;101944.53;;;18.59;49.83
50250;BME280;36133;42.522;27.456;2023-05-09T13:08:38;101426.91;;;15.51;50.26